Share

Bramble, Montserrat

V C Bird International (TAPA) Elev 46 ft | 17.12 °N, 61.78 °W | Change Station

Current weather conditions updated 8 minutes ago

Scattered Clouds
Scattered Clouds
82 °F
Feels Like 86 °F
N
21
Wind Variable Wind from East
Sunrise 5:50 AM
Sunset 6:25 PM
Moon Waning Gibbous

Today is forecast to be nearly the same temperature as yesterday. Mix of sun and clouds.

Pressure 30.06 in
Visibility 6.2 miles
Clouds Scattered Clouds 1600 ft
Heat Index 86 °F
Dew Point 70 °F
Humidity 66%
Rainfall 0.00 in
Snow Depth Not available.
UV 14 out of 16
Pollen Not available.
Air Quality Not available.
Flu Activity Not available.
METAR TAPA 191700Z 10018KT 9999 SCT016 28/21 Q1018 NOSIG

More Conditions Fewer Conditions

Pressure 30.06 in
Visibility 6.2 miles
Clouds Scattered Clouds 1600 ft
Heat Index 86 °F
Dew Point 70 °F
Humidity 66%
Rainfall 0.00 in
Snow Depth Not available.
UV 14 out of 16
Pollen Not available.
Air Quality Not available.
Flu Activity Not available.
METAR TAPA 191700Z 10018KT 9999 SCT016 28/21 Q1018 NOSIG

More Conditions Fewer Conditions

10-Day Weather Forecast

Almanac

Astronomy

Apr. 19, 2014 Rise Set
Actual Time 5:50 AM AST 6:25 PM AST
Civil Twilight 5:28 AM AST 6:47 PM AST
Nautical Twilight 5:02 AM AST 7:13 PM AST
Astronomical Twilight 4:36 AM AST 7:39 PM AST
Moon 10:43 PM AST 9:24 AM AST
Length of Visible Light 13h 18m
Length of Day
12h 34m
Tomorrow will be 0m 52s longer.
Waning Gibbous, 78% of the Moon is Illuminated
Today
Waning Gibbous
Apr 22
Last Quarter
Apr 29
New
May 6
First Quarter
May 14
Full

Today's Extremes

Country Highs Country Lows

Community

  • A Glorious Morning
    A Glorious Morning
  • Tender Rays Of Hope
    Tender Rays Of Hope
  • Bleeding Hearts
    Bleeding Hearts
  • Sunset Silhouettes
    Sunset Silhouettes
  • FL sunset Perico Isle
    FL sunset Perico Isle

WunderPhotos

Upload Photos

1,702,803 photos uploaded!

WunderBlogs® & News

Nearby

Snow Depth

Not available.

Coastal Water Temperatures

Place Temperature
No Stations Reporting

Earthquake Activity

City Distance Mag. Time & Date
No recent earthquake activity has been reported nearby.
Minimum magnitude displayed is 2.5.

Nearby Weather Stations

There are no personal weather stations in this area.

What do you think?

We're not finished. Please let us know what you like, what you don't like, and what you are still missing.